sensor_id;sensor_type;location;lat;lon;timestamp;P1;durP1;ratioP1;P2;durP2;ratioP2
12088;SDS011;6107;49.078;8.578;2022-09-12T00:00:44;9.77;;;6.97;;
12088;SDS011;6107;49.078;8.578;2022-09-12T00:03:10;11.10;;;7.37;;
12088;SDS011;6107;49.078;8.578;2022-09-12T00:05:42;11.43;;;7.60;;
12088;SDS011;6107;49.078;8.578;2022-09-12T00:08:08;13.40;;;8.20;;
12088;SDS011;6107;49.078;8.578;2022-09-12T00:10:41;10.87;;;8.20;;
12088;SDS011;6107;49.078;8.578;2022-09-12T00:13:08;8.93;;;7.60;;
12088;SDS011;6107;49.078;8.578;2022-09-12T00:15:38;11.50;;;7.93;;
12088;SDS011;6107;49.078;8.578;2022-09-12T00:18:09;12.77;;;8.23;;
12088;SDS011;6107;49.078;8.578;2022-09-12T00:20:45;11.50;;;7.40;;
12088;SDS011;6107;49.078;8.578;2022-09-12T00:23:11;9.40;;;7.67;;
12088;SDS011;6107;49.078;8.578;2022-09-12T00:25:41;9.20;;;7.40;;
12088;SDS011;6107;49.078;8.578;2022-09-12T00:28:08;9.47;;;7.27;;
12088;SDS011;6107;49.078;8.578;2022-09-12T00:30:38;9.63;;;7.43;;
12088;SDS011;6107;49.078;8.578;2022-09-12T00:33:05;10.70;;;7.60;;
12088;SDS011;6107;49.078;8.578;2022-09-12T00:35:31;11.00;;;7.87;;
12088;SDS011;6107;49.078;8.578;2022-09-12T00:37:57;9.63;;;7.43;;
12088;SDS011;6107;49.078;8.578;2022-09-12T00:40:22;9.47;;;7.90;;
12088;SDS011;6107;49.078;8.578;2022-09-12T00:42:48;9.63;;;8.07;;
12088;SDS011;6107;49.078;8.578;2022-09-12T00:45:18;8.40;;;7.30;;
12088;SDS011;6107;49.078;8.578;2022-09-12T00:47:48;7.57;;;6.50;;
12088;SDS011;6107;49.078;8.578;2022-09-12T00:50:13;9.87;;;7.70;;
12088;SDS011;6107;49.078;8.578;2022-09-12T00:52:43;10.70;;;7.47;;
12088;SDS011;6107;49.078;8.578;2022-09-12T00:55:18;11.13;;;7.47;;
12088;SDS011;6107;49.078;8.578;2022-09-12T00:57:53;11.40;;;8.50;;
12088;SDS011;6107;49.078;8.578;2022-09-12T01:00:24;11.30;;;7.20;;
12088;SDS011;6107;49.078;8.578;2022-09-12T01:02:59;8.77;;;7.23;;
12088;SDS011;6107;49.078;8.578;2022-09-12T01:05:28;8.80;;;7.30;;
12088;SDS011;6107;49.078;8.578;2022-09-12T01:07:57;10.93;;;8.27;;
12088;SDS011;6107;49.078;8.578;2022-09-12T01:10:26;9.70;;;7.20;;
12088;SDS011;6107;49.078;8.578;2022-09-12T01:12:51;9.43;;;7.30;;
12088;SDS011;6107;49.078;8.578;2022-09-12T01:15:17;10.43;;;7.20;;
12088;SDS011;6107;49.078;8.578;2022-09-12T01:18:31;10.90;;;8.20;;
12088;SDS011;6107;49.078;8.578;2022-09-12T01:20:33;9.77;;;7.30;;
12088;SDS011;6107;49.078;8.578;2022-09-12T01:23:18;10.43;;;7.37;;
12088;SDS011;6107;49.078;8.578;2022-09-12T01:25:59;13.03;;;8.37;;
12088;SDS011;6107;49.078;8.578;2022-09-12T01:31:36;15.07;;;8.67;;
12088;SDS011;6107;49.078;8.578;2022-09-12T01:34:23;11.47;;;8.73;;
12088;SDS011;6107;49.078;8.578;2022-09-12T01:39:54;11.93;;;8.37;;
12088;SDS011;6107;49.078;8.578;2022-09-12T01:42:32;11.93;;;8.60;;
12088;SDS011;6107;49.078;8.578;2022-09-12T01:47:40;10.80;;;7.73;;
12088;SDS011;6107;49.078;8.578;2022-09-12T01:55:30;12.90;;;8.57;;
12088;SDS011;6107;49.078;8.578;2022-09-12T01:58:08;14.23;;;8.63;;
12088;SDS011;6107;49.078;8.578;2022-09-12T02:00:42;10.60;;;8.83;;
12088;SDS011;6107;49.078;8.578;2022-09-12T02:03:17;11.07;;;7.53;;
12088;SDS011;6107;49.078;8.578;2022-09-12T02:05:50;10.70;;;8.63;;
12088;SDS011;6107;49.078;8.578;2022-09-12T02:08:26;12.33;;;9.13;;
12088;SDS011;6107;49.078;8.578;2022-09-12T02:10:57;12.80;;;9.60;;
12088;SDS011;6107;49.078;8.578;2022-09-12T02:13:38;12.60;;;9.67;;
12088;SDS011;6107;49.078;8.578;2022-09-12T02:16:12;14.20;;;9.33;;
12088;SDS011;6107;49.078;8.578;2022-09-12T02:18:44;16.70;;;9.77;;
12088;SDS011;6107;49.078;8.578;2022-09-12T02:21:14;13.97;;;9.47;;
12088;SDS011;6107;49.078;8.578;2022-09-12T02:23:45;16.37;;;9.67;;
12088;SDS011;6107;49.078;8.578;2022-09-12T02:26:18;11.63;;;8.50;;
12088;SDS011;6107;49.078;8.578;2022-09-12T02:28:50;12.23;;;8.37;;
12088;SDS011;6107;49.078;8.578;2022-09-12T02:31:22;15.13;;;8.60;;
12088;SDS011;6107;49.078;8.578;2022-09-12T02:39:19;13.20;;;9.43;;
12088;SDS011;6107;49.078;8.578;2022-09-12T02:41:54;15.53;;;10.27;;
12088;SDS011;6107;49.078;8.578;2022-09-12T02:44:23;15.80;;;10.57;;
12088;SDS011;6107;49.078;8.578;2022-09-12T02:47:37;16.03;;;10.60;;
12088;SDS011;6107;49.078;8.578;2022-09-12T02:49:39;17.73;;;12.23;;
12088;SDS011;6107;49.078;8.578;2022-09-12T02:52:05;19.23;;;11.50;;
12088;SDS011;6107;49.078;8.578;2022-09-12T02:54:31;16.77;;;10.93;;
12088;SDS011;6107;49.078;8.578;2022-09-12T02:56:57;18.93;;;11.30;;
12088;SDS011;6107;49.078;8.578;2022-09-12T02:59:22;20.10;;;11.73;;
12088;SDS011;6107;49.078;8.578;2022-09-12T03:01:59;17.07;;;11.60;;
12088;SDS011;6107;49.078;8.578;2022-09-12T03:04:53;17.83;;;11.50;;
12088;SDS011;6107;49.078;8.578;2022-09-12T03:10:26;19.87;;;11.53;;
12088;SDS011;6107;49.078;8.578;2022-09-12T03:13:05;15.90;;;11.57;;
12088;SDS011;6107;49.078;8.578;2022-09-12T03:23:37;22.83;;;13.97;;
12088;SDS011;6107;49.078;8.578;2022-09-12T03:28:53;24.47;;;14.57;;
12088;SDS011;6107;49.078;8.578;2022-09-12T03:31:20;23.23;;;14.60;;
12088;SDS011;6107;49.078;8.578;2022-09-12T03:33:46;22.40;;;15.17;;
12088;SDS011;6107;49.078;8.578;2022-09-12T03:36:13;28.90;;;17.93;;
12088;SDS011;6107;49.078;8.578;2022-09-12T03:38:45;24.10;;;14.40;;
12088;SDS011;6107;49.078;8.578;2022-09-12T03:41:11;20.43;;;13.57;;
12088;SDS011;6107;49.078;8.578;2022-09-12T03:43:37;19.93;;;12.97;;
12088;SDS011;6107;49.078;8.578;2022-09-12T03:46:02;25.73;;;14.73;;
12088;SDS011;6107;49.078;8.578;2022-09-12T03:48:28;24.20;;;14.33;;
12088;SDS011;6107;49.078;8.578;2022-09-12T03:50:58;21.33;;;13.77;;
12088;SDS011;6107;49.078;8.578;2022-09-12T03:53:33;20.40;;;13.77;;
12088;SDS011;6107;49.078;8.578;2022-09-12T03:55:59;20.10;;;13.27;;
12088;SDS011;6107;49.078;8.578;2022-09-12T03:58:29;20.37;;;13.50;;
12088;SDS011;6107;49.078;8.578;2022-09-12T04:00:57;21.57;;;12.93;;
12088;SDS011;6107;49.078;8.578;2022-09-12T04:03:23;24.57;;;15.13;;
12088;SDS011;6107;49.078;8.578;2022-09-12T04:05:49;24.70;;;14.57;;
12088;SDS011;6107;49.078;8.578;2022-09-12T04:08:14;24.00;;;14.13;;
12088;SDS011;6107;49.078;8.578;2022-09-12T04:10:40;22.13;;;14.57;;
12088;SDS011;6107;49.078;8.578;2022-09-12T04:13:06;24.30;;;15.20;;
12088;SDS011;6107;49.078;8.578;2022-09-12T04:15:31;21.43;;;13.87;;
12088;SDS011;6107;49.078;8.578;2022-09-12T04:17:57;21.47;;;13.50;;
12088;SDS011;6107;49.078;8.578;2022-09-12T04:20:22;25.03;;;15.43;;
12088;SDS011;6107;49.078;8.578;2022-09-12T04:22:50;22.90;;;14.03;;
12088;SDS011;6107;49.078;8.578;2022-09-12T04:25:16;22.57;;;14.23;;
12088;SDS011;6107;49.078;8.578;2022-09-12T04:27:41;27.33;;;15.60;;
12088;SDS011;6107;49.078;8.578;2022-09-12T04:30:07;27.30;;;14.93;;
12088;SDS011;6107;49.078;8.578;2022-09-12T04:32:33;22.67;;;14.33;;
12088;SDS011;6107;49.078;8.578;2022-09-12T04:34:59;21.27;;;13.73;;
12088;SDS011;6107;49.078;8.578;2022-09-12T04:37:24;24.50;;;13.97;;
12088;SDS011;6107;49.078;8.578;2022-09-12T04:39:50;28.37;;;15.03;;
12088;SDS011;6107;49.078;8.578;2022-09-12T04:42:21;23.83;;;14.80;;
12088;SDS011;6107;49.078;8.578;2022-09-12T04:44:47;20.93;;;13.60;;
12088;SDS011;6107;49.078;8.578;2022-09-12T04:47:13;25.37;;;15.30;;
12088;SDS011;6107;49.078;8.578;2022-09-12T04:49:38;22.13;;;13.87;;
12088;SDS011;6107;49.078;8.578;2022-09-12T04:52:04;25.87;;;16.23;;
12088;SDS011;6107;49.078;8.578;2022-09-12T04:54:29;26.40;;;16.07;;
12088;SDS011;6107;49.078;8.578;2022-09-12T04:56:55;25.17;;;16.43;;
12088;SDS011;6107;49.078;8.578;2022-09-12T04:59:21;24.23;;;15.87;;
12088;SDS011;6107;49.078;8.578;2022-09-12T05:01:47;30.20;;;16.77;;
12088;SDS011;6107;49.078;8.578;2022-09-12T05:04:12;24.53;;;14.83;;
12088;SDS011;6107;49.078;8.578;2022-09-12T05:06:38;25.17;;;15.33;;
12088;SDS011;6107;49.078;8.578;2022-09-12T05:09:06;26.97;;;16.87;;
12088;SDS011;6107;49.078;8.578;2022-09-12T05:11:36;29.10;;;16.53;;
12088;SDS011;6107;49.078;8.578;2022-09-12T05:14:03;25.43;;;16.30;;
12088;SDS011;6107;49.078;8.578;2022-09-12T05:16:28;26.47;;;17.27;;
12088;SDS011;6107;49.078;8.578;2022-09-12T05:18:56;26.70;;;16.33;;
12088;SDS011;6107;49.078;8.578;2022-09-12T05:21:22;31.60;;;18.17;;
12088;SDS011;6107;49.078;8.578;2022-09-12T05:23:52;24.60;;;15.70;;
12088;SDS011;6107;49.078;8.578;2022-09-12T05:26:19;32.27;;;16.43;;
12088;SDS011;6107;49.078;8.578;2022-09-12T05:28:46;25.93;;;17.10;;
12088;SDS011;6107;49.078;8.578;2022-09-12T05:31:13;27.03;;;16.37;;
12088;SDS011;6107;49.078;8.578;2022-09-12T05:33:40;25.63;;;16.03;;
12088;SDS011;6107;49.078;8.578;2022-09-12T05:36:11;27.03;;;17.40;;
12088;SDS011;6107;49.078;8.578;2022-09-12T05:38:39;24.13;;;16.13;;
12088;SDS011;6107;49.078;8.578;2022-09-12T05:41:06;26.17;;;16.53;;
12088;SDS011;6107;49.078;8.578;2022-09-12T05:43:34;29.53;;;17.00;;
12088;SDS011;6107;49.078;8.578;2022-09-12T05:46:02;28.50;;;16.87;;
12088;SDS011;6107;49.078;8.578;2022-09-12T05:48:29;24.93;;;15.90;;
12088;SDS011;6107;49.078;8.578;2022-09-12T05:50:59;27.00;;;17.07;;
12088;SDS011;6107;49.078;8.578;2022-09-12T05:53:26;25.20;;;16.00;;
12088;SDS011;6107;49.078;8.578;2022-09-12T05:56:00;25.17;;;15.37;;
12088;SDS011;6107;49.078;8.578;2022-09-12T05:58:27;25.40;;;16.03;;
12088;SDS011;6107;49.078;8.578;2022-09-12T06:00:53;24.23;;;15.17;;
12088;SDS011;6107;49.078;8.578;2022-09-12T06:03:20;26.93;;;15.87;;
12088;SDS011;6107;49.078;8.578;2022-09-12T06:05:45;23.03;;;15.70;;
12088;SDS011;6107;49.078;8.578;2022-09-12T06:08:11;23.10;;;13.83;;
12088;SDS011;6107;49.078;8.578;2022-09-12T06:10:36;21.23;;;14.90;;
12088;SDS011;6107;49.078;8.578;2022-09-12T06:13:02;23.43;;;15.50;;
12088;SDS011;6107;49.078;8.578;2022-09-12T06:15:28;24.53;;;14.53;;
12088;SDS011;6107;49.078;8.578;2022-09-12T06:17:53;19.60;;;13.80;;
12088;SDS011;6107;49.078;8.578;2022-09-12T06:20:19;20.97;;;13.83;;
12088;SDS011;6107;49.078;8.578;2022-09-12T06:22:44;21.53;;;14.20;;
12088;SDS011;6107;49.078;8.578;2022-09-12T06:25:11;21.07;;;13.33;;
12088;SDS011;6107;49.078;8.578;2022-09-12T06:27:38;21.20;;;13.83;;
12088;SDS011;6107;49.078;8.578;2022-09-12T06:30:04;19.90;;;13.77;;
12088;SDS011;6107;49.078;8.578;2022-09-12T06:32:30;21.83;;;13.87;;
12088;SDS011;6107;49.078;8.578;2022-09-12T06:34:56;20.93;;;13.57;;
12088;SDS011;6107;49.078;8.578;2022-09-12T06:37:22;21.83;;;14.10;;
12088;SDS011;6107;49.078;8.578;2022-09-12T06:39:48;19.83;;;13.70;;
12088;SDS011;6107;49.078;8.578;2022-09-12T06:42:13;19.10;;;12.27;;
12088;SDS011;6107;49.078;8.578;2022-09-12T06:44:39;19.03;;;13.87;;
12088;SDS011;6107;49.078;8.578;2022-09-12T06:47:05;18.17;;;12.30;;
12088;SDS011;6107;49.078;8.578;2022-09-12T06:49:31;18.83;;;13.00;;
12088;SDS011;6107;49.078;8.578;2022-09-12T06:51:57;19.53;;;12.50;;
12088;SDS011;6107;49.078;8.578;2022-09-12T06:54:23;17.33;;;11.83;;
12088;SDS011;6107;49.078;8.578;2022-09-12T06:56:50;15.20;;;11.67;;
12088;SDS011;6107;49.078;8.578;2022-09-12T06:59:16;15.73;;;10.60;;
12088;SDS011;6107;49.078;8.578;2022-09-12T07:01:42;16.77;;;11.63;;
12088;SDS011;6107;49.078;8.578;2022-09-12T07:04:07;17.27;;;11.77;;
12088;SDS011;6107;49.078;8.578;2022-09-12T07:06:37;17.23;;;11.67;;
12088;SDS011;6107;49.078;8.578;2022-09-12T07:09:09;15.20;;;11.70;;
12088;SDS011;6107;49.078;8.578;2022-09-12T07:11:38;17.30;;;11.93;;
12088;SDS011;6107;49.078;8.578;2022-09-12T07:14:05;14.47;;;10.80;;
12088;SDS011;6107;49.078;8.578;2022-09-12T07:16:31;14.70;;;10.77;;
12088;SDS011;6107;49.078;8.578;2022-09-12T07:18:59;13.90;;;9.80;;
12088;SDS011;6107;49.078;8.578;2022-09-12T07:21:26;11.67;;;8.97;;
12088;SDS011;6107;49.078;8.578;2022-09-12T07:23:53;13.17;;;9.60;;
12088;SDS011;6107;49.078;8.578;2022-09-12T07:26:21;13.60;;;9.43;;
12088;SDS011;6107;49.078;8.578;2022-09-12T07:28:51;13.23;;;9.50;;
12088;SDS011;6107;49.078;8.578;2022-09-12T07:31:18;17.57;;;10.47;;
12088;SDS011;6107;49.078;8.578;2022-09-12T07:33:45;11.80;;;9.10;;
12088;SDS011;6107;49.078;8.578;2022-09-12T07:36:12;11.57;;;9.60;;
12088;SDS011;6107;49.078;8.578;2022-09-12T07:38:39;13.27;;;8.60;;
12088;SDS011;6107;49.078;8.578;2022-09-12T07:41:12;13.03;;;9.57;;
12088;SDS011;6107;49.078;8.578;2022-09-12T07:43:42;10.53;;;8.27;;
12088;SDS011;6107;49.078;8.578;2022-09-12T07:46:08;12.23;;;8.50;;
12088;SDS011;6107;49.078;8.578;2022-09-12T07:48:35;10.63;;;8.10;;
12088;SDS011;6107;49.078;8.578;2022-09-12T07:51:03;9.87;;;7.67;;
12088;SDS011;6107;49.078;8.578;2022-09-12T07:53:30;10.95;;;7.47;;
12088;SDS011;6107;49.078;8.578;2022-09-12T07:56:01;9.65;;;7.72;;
12088;SDS011;6107;49.078;8.578;2022-09-12T07:58:28;9.75;;;7.75;;
12088;SDS011;6107;49.078;8.578;2022-09-12T08:01:00;8.60;;;7.32;;
12088;SDS011;6107;49.078;8.578;2022-09-12T08:03:32;7.90;;;6.53;;
12088;SDS011;6107;49.078;8.578;2022-09-12T08:06:06;10.23;;;7.68;;
12088;SDS011;6107;49.078;8.578;2022-09-12T08:08:39;8.95;;;6.47;;
12088;SDS011;6107;49.078;8.578;2022-09-12T08:11:07;8.73;;;6.65;;
12088;SDS011;6107;49.078;8.578;2022-09-12T08:13:35;8.68;;;6.18;;
12088;SDS011;6107;49.078;8.578;2022-09-12T08:16:06;7.97;;;6.50;;
12088;SDS011;6107;49.078;8.578;2022-09-12T08:18:35;9.50;;;6.78;;
12088;SDS011;6107;49.078;8.578;2022-09-12T08:21:03;7.68;;;6.22;;
12088;SDS011;6107;49.078;8.578;2022-09-12T08:23:30;7.38;;;6.03;;
12088;SDS011;6107;49.078;8.578;2022-09-12T08:25:56;7.15;;;6.28;;
12088;SDS011;6107;49.078;8.578;2022-09-12T08:28:24;7.75;;;5.95;;
12088;SDS011;6107;49.078;8.578;2022-09-12T08:30:50;10.70;;;6.03;;
12088;SDS011;6107;49.078;8.578;2022-09-12T08:33:16;6.95;;;5.35;;
12088;SDS011;6107;49.078;8.578;2022-09-12T08:35:42;7.45;;;5.68;;
12088;SDS011;6107;49.078;8.578;2022-09-12T08:38:07;7.18;;;5.65;;
12088;SDS011;6107;49.078;8.578;2022-09-12T08:40:36;5.07;;;4.43;;
12088;SDS011;6107;49.078;8.578;2022-09-12T08:46:16;6.15;;;5.50;;
12088;SDS011;6107;49.078;8.578;2022-09-12T08:48:47;5.18;;;4.68;;
12088;SDS011;6107;49.078;8.578;2022-09-12T08:51:16;6.55;;;5.00;;
12088;SDS011;6107;49.078;8.578;2022-09-12T08:53:44;5.53;;;4.63;;
12088;SDS011;6107;49.078;8.578;2022-09-12T08:56:13;6.57;;;4.70;;
12088;SDS011;6107;49.078;8.578;2022-09-12T08:58:41;5.75;;;4.90;;
12088;SDS011;6107;49.078;8.578;2022-09-12T09:04:31;5.47;;;4.50;;
12088;SDS011;6107;49.078;8.578;2022-09-12T09:07:22;5.38;;;4.82;;
12088;SDS011;6107;49.078;8.578;2022-09-12T09:17:57;5.05;;;4.43;;
12088;SDS011;6107;49.078;8.578;2022-09-12T09:23:05;5.88;;;4.18;;
12088;SDS011;6107;49.078;8.578;2022-09-12T09:25:49;5.13;;;4.63;;
12088;SDS011;6107;49.078;8.578;2022-09-12T09:28:29;4.78;;;4.05;;
12088;SDS011;6107;49.078;8.578;2022-09-12T09:31:22;4.93;;;4.25;;
12088;SDS011;6107;49.078;8.578;2022-09-12T09:33:51;4.93;;;3.75;;
12088;SDS011;6107;49.078;8.578;2022-09-12T09:36:22;4.68;;;3.80;;
12088;SDS011;6107;49.078;8.578;2022-09-12T09:38:57;4.43;;;3.85;;
12088;SDS011;6107;49.078;8.578;2022-09-12T09:44:21;4.55;;;3.65;;
12088;SDS011;6107;49.078;8.578;2022-09-12T09:46:48;4.28;;;3.88;;
12088;SDS011;6107;49.078;8.578;2022-09-12T09:49:19;7.22;;;4.43;;
12088;SDS011;6107;49.078;8.578;2022-09-12T09:51:46;4.57;;;4.03;;
12088;SDS011;6107;49.078;8.578;2022-09-12T09:56:53;4.78;;;3.50;;
12088;SDS011;6107;49.078;8.578;2022-09-12T09:59:26;3.60;;;3.17;;
12088;SDS011;6107;49.078;8.578;2022-09-12T10:01:56;4.15;;;3.75;;
12088;SDS011;6107;49.078;8.578;2022-09-12T10:04:38;4.45;;;4.07;;
12088;SDS011;6107;49.078;8.578;2022-09-12T10:07:05;4.07;;;3.67;;
12088;SDS011;6107;49.078;8.578;2022-09-12T10:09:32;4.65;;;3.45;;
12088;SDS011;6107;49.078;8.578;2022-09-12T10:11:58;4.07;;;3.70;;
12088;SDS011;6107;49.078;8.578;2022-09-12T10:16:51;4.25;;;3.75;;
12088;SDS011;6107;49.078;8.578;2022-09-12T10:19:22;4.18;;;3.63;;
12088;SDS011;6107;49.078;8.578;2022-09-12T10:21:51;3.88;;;3.47;;
12088;SDS011;6107;49.078;8.578;2022-09-12T10:24:25;3.45;;;3.15;;
12088;SDS011;6107;49.078;8.578;2022-09-12T10:26:53;4.45;;;3.40;;
12088;SDS011;6107;49.078;8.578;2022-09-12T10:29:21;4.45;;;3.55;;
12088;SDS011;6107;49.078;8.578;2022-09-12T10:31:52;4.35;;;3.70;;
12088;SDS011;6107;49.078;8.578;2022-09-12T10:34:24;3.75;;;3.00;;
12088;SDS011;6107;49.078;8.578;2022-09-12T10:36:53;3.97;;;3.47;;
12088;SDS011;6107;49.078;8.578;2022-09-12T10:39:19;3.67;;;3.38;;
12088;SDS011;6107;49.078;8.578;2022-09-12T10:41:46;3.95;;;3.42;;
12088;SDS011;6107;49.078;8.578;2022-09-12T10:44:17;5.63;;;3.30;;
12088;SDS011;6107;49.078;8.578;2022-09-12T10:46:43;4.15;;;3.85;;
12088;SDS011;6107;49.078;8.578;2022-09-12T10:51:50;7.40;;;3.50;;
12088;SDS011;6107;49.078;8.578;2022-09-12T10:54:17;6.07;;;3.78;;
12088;SDS011;6107;49.078;8.578;2022-09-12T10:59:23;3.65;;;3.30;;
12088;SDS011;6107;49.078;8.578;2022-09-12T11:02:00;3.53;;;3.13;;
12088;SDS011;6107;49.078;8.578;2022-09-12T11:04:54;4.38;;;3.15;;
12088;SDS011;6107;49.078;8.578;2022-09-12T11:07:34;3.40;;;3.10;;
12088;SDS011;6107;49.078;8.578;2022-09-12T11:17:41;3.80;;;2.90;;
12088;SDS011;6107;49.078;8.578;2022-09-12T11:25:40;3.42;;;3.10;;
12088;SDS011;6107;49.078;8.578;2022-09-12T11:28:19;3.90;;;2.88;;
12088;SDS011;6107;49.078;8.578;2022-09-12T11:33:34;3.53;;;2.60;;
12088;SDS011;6107;49.078;8.578;2022-09-12T11:36:06;4.25;;;3.05;;
12088;SDS011;6107;49.078;8.578;2022-09-12T11:38:46;3.47;;;3.08;;
12088;SDS011;6107;49.078;8.578;2022-09-12T11:44:18;5.05;;;3.00;;
12088;SDS011;6107;49.078;8.578;2022-09-12T11:46:45;4.30;;;3.15;;
12088;SDS011;6107;49.078;8.578;2022-09-12T11:49:23;3.00;;;2.70;;
12088;SDS011;6107;49.078;8.578;2022-09-12T11:51:59;3.53;;;2.80;;
12088;SDS011;6107;49.078;8.578;2022-09-12T11:54:35;3.40;;;3.10;;
12088;SDS011;6107;49.078;8.578;2022-09-12T11:57:22;3.10;;;2.80;;
12088;SDS011;6107;49.078;8.578;2022-09-12T12:02:25;3.60;;;2.75;;
12088;SDS011;6107;49.078;8.578;2022-09-12T12:07:20;4.45;;;2.90;;
12088;SDS011;6107;49.078;8.578;2022-09-12T12:09:47;4.05;;;2.58;;
12088;SDS011;6107;49.078;8.578;2022-09-12T12:12:15;2.92;;;2.60;;
12088;SDS011;6107;49.078;8.578;2022-09-12T12:14:43;2.67;;;2.47;;
12088;SDS011;6107;49.078;8.578;2022-09-12T12:17:14;2.85;;;2.50;;
12088;SDS011;6107;49.078;8.578;2022-09-12T12:19:41;3.55;;;2.40;;
12088;SDS011;6107;49.078;8.578;2022-09-12T12:22:13;2.78;;;2.58;;
12088;SDS011;6107;49.078;8.578;2022-09-12T12:27:23;2.58;;;2.20;;
12088;SDS011;6107;49.078;8.578;2022-09-12T12:29:49;2.50;;;2.30;;
12088;SDS011;6107;49.078;8.578;2022-09-12T12:34:42;2.30;;;2.10;;
12088;SDS011;6107;49.078;8.578;2022-09-12T12:44:55;3.63;;;2.47;;
12088;SDS011;6107;49.078;8.578;2022-09-12T12:52:29;2.15;;;1.95;;
12088;SDS011;6107;49.078;8.578;2022-09-12T12:54:57;4.50;;;2.30;;
12088;SDS011;6107;49.078;8.578;2022-09-12T12:57:25;2.25;;;2.05;;
12088;SDS011;6107;49.078;8.578;2022-09-12T12:59:53;2.67;;;2.28;;
12088;SDS011;6107;49.078;8.578;2022-09-12T13:02:21;2.67;;;2.40;;
12088;SDS011;6107;49.078;8.578;2022-09-12T13:04:48;2.75;;;2.20;;
12088;SDS011;6107;49.078;8.578;2022-09-12T13:07:25;2.33;;;2.13;;
12088;SDS011;6107;49.078;8.578;2022-09-12T13:09:52;3.10;;;2.03;;
12088;SDS011;6107;49.078;8.578;2022-09-12T13:12:26;2.83;;;2.22;;
12088;SDS011;6107;49.078;8.578;2022-09-12T13:14:59;2.20;;;2.00;;
12088;SDS011;6107;49.078;8.578;2022-09-12T13:19:52;2.33;;;2.10;;
12088;SDS011;6107;49.078;8.578;2022-09-12T13:22:20;1.88;;;1.77;;
12088;SDS011;6107;49.078;8.578;2022-09-12T13:24:47;3.75;;;2.47;;
12088;SDS011;6107;49.078;8.578;2022-09-12T13:27:20;2.42;;;1.92;;
12088;SDS011;6107;49.078;8.578;2022-09-12T13:29:47;2.88;;;2.10;;
12088;SDS011;6107;49.078;8.578;2022-09-12T13:32:13;3.95;;;2.15;;
12088;SDS011;6107;49.078;8.578;2022-09-12T13:35:29;2.67;;;2.08;;
12088;SDS011;6107;49.078;8.578;2022-09-12T13:37:47;2.13;;;1.92;;
12088;SDS011;6107;49.078;8.578;2022-09-12T13:40:26;2.53;;;2.00;;
12088;SDS011;6107;49.078;8.578;2022-09-12T13:43:12;2.45;;;2.17;;
12088;SDS011;6107;49.078;8.578;2022-09-12T13:45:39;2.45;;;2.25;;
12088;SDS011;6107;49.078;8.578;2022-09-12T13:48:09;2.55;;;2.30;;
12088;SDS011;6107;49.078;8.578;2022-09-12T13:50:39;2.63;;;2.25;;
12088;SDS011;6107;49.078;8.578;2022-09-12T13:53:09;4.30;;;2.20;;
12088;SDS011;6107;49.078;8.578;2022-09-12T13:55:41;3.90;;;1.95;;
12088;SDS011;6107;49.078;8.578;2022-09-12T13:58:24;3.20;;;2.20;;
12088;SDS011;6107;49.078;8.578;2022-09-12T14:01:09;2.13;;;1.92;;
12088;SDS011;6107;49.078;8.578;2022-09-12T14:06:53;3.17;;;1.98;;
12088;SDS011;6107;49.078;8.578;2022-09-12T14:09:22;2.30;;;2.10;;
12088;SDS011;6107;49.078;8.578;2022-09-12T14:11:48;2.50;;;1.90;;
12088;SDS011;6107;49.078;8.578;2022-09-12T14:14:19;2.33;;;2.13;;
12088;SDS011;6107;49.078;8.578;2022-09-12T14:16:46;3.50;;;2.05;;
12088;SDS011;6107;49.078;8.578;2022-09-12T14:19:13;5.30;;;2.20;;
12088;SDS011;6107;49.078;8.578;2022-09-12T14:21:40;5.00;;;1.95;;
12088;SDS011;6107;49.078;8.578;2022-09-12T14:24:08;3.22;;;1.90;;
12088;SDS011;6107;49.078;8.578;2022-09-12T14:26:35;3.13;;;2.08;;
12088;SDS011;6107;49.078;8.578;2022-09-12T14:29:06;1.90;;;1.70;;
12088;SDS011;6107;49.078;8.578;2022-09-12T14:31:34;2.20;;;2.00;;
12088;SDS011;6107;49.078;8.578;2022-09-12T14:34:08;1.77;;;1.67;;
12088;SDS011;6107;49.078;8.578;2022-09-12T14:36:44;3.55;;;2.08;;
12088;SDS011;6107;49.078;8.578;2022-09-12T14:39:19;2.33;;;1.80;;
12088;SDS011;6107;49.078;8.578;2022-09-12T14:41:48;2.15;;;1.85;;
12088;SDS011;6107;49.078;8.578;2022-09-12T14:44:24;2.40;;;2.20;;
12088;SDS011;6107;49.078;8.578;2022-09-12T14:46:51;3.22;;;2.05;;
12088;SDS011;6107;49.078;8.578;2022-09-12T14:49:19;2.00;;;1.85;;
12088;SDS011;6107;49.078;8.578;2022-09-12T14:56:55;2.55;;;1.90;;
12088;SDS011;6107;49.078;8.578;2022-09-12T15:04:44;2.35;;;2.15;;
12088;SDS011;6107;49.078;8.578;2022-09-12T15:07:15;2.75;;;1.98;;
12088;SDS011;6107;49.078;8.578;2022-09-12T15:09:41;1.90;;;1.70;;
12088;SDS011;6107;49.078;8.578;2022-09-12T15:12:08;4.75;;;1.92;;
12088;SDS011;6107;49.078;8.578;2022-09-12T15:14:34;4.43;;;1.92;;
12088;SDS011;6107;49.078;8.578;2022-09-12T15:17:00;1.83;;;1.63;;
12088;SDS011;6107;49.078;8.578;2022-09-12T15:19:26;2.63;;;1.70;;
12088;SDS011;6107;49.078;8.578;2022-09-12T15:21:52;2.92;;;1.90;;
12088;SDS011;6107;49.078;8.578;2022-09-12T15:24:18;3.90;;;2.00;;
12088;SDS011;6107;49.078;8.578;2022-09-12T15:26:44;6.40;;;1.80;;
12088;SDS011;6107;49.078;8.578;2022-09-12T15:29:10;6.65;;;2.08;;
12088;SDS011;6107;49.078;8.578;2022-09-12T15:31:36;4.72;;;2.10;;
12088;SDS011;6107;49.078;8.578;2022-09-12T15:34:04;3.90;;;2.00;;
12088;SDS011;6107;49.078;8.578;2022-09-12T15:36:30;3.25;;;1.88;;
12088;SDS011;6107;49.078;8.578;2022-09-12T15:38:56;4.38;;;1.80;;
12088;SDS011;6107;49.078;8.578;2022-09-12T15:41:32;2.00;;;1.80;;
12088;SDS011;6107;49.078;8.578;2022-09-12T15:44:06;2.35;;;2.15;;
12088;SDS011;6107;49.078;8.578;2022-09-12T15:46:34;59.55;;;4.53;;
12088;SDS011;6107;49.078;8.578;2022-09-12T15:49:00;4.18;;;2.00;;
12088;SDS011;6107;49.078;8.578;2022-09-12T15:51:26;2.40;;;1.90;;
12088;SDS011;6107;49.078;8.578;2022-09-12T15:53:52;3.65;;;1.83;;
12088;SDS011;6107;49.078;8.578;2022-09-12T15:56:19;2.45;;;1.90;;
12088;SDS011;6107;49.078;8.578;2022-09-12T15:58:46;6.53;;;2.40;;
12088;SDS011;6107;49.078;8.578;2022-09-12T16:01:12;6.53;;;2.10;;
12088;SDS011;6107;49.078;8.578;2022-09-12T16:03:39;6.45;;;2.25;;
12088;SDS011;6107;49.078;8.578;2022-09-12T16:06:05;3.63;;;1.98;;
12088;SDS011;6107;49.078;8.578;2022-09-12T16:08:33;4.63;;;2.15;;
12088;SDS011;6107;49.078;8.578;2022-09-12T16:11:00;5.20;;;2.28;;
12088;SDS011;6107;49.078;8.578;2022-09-12T16:13:27;2.58;;;2.38;;
12088;SDS011;6107;49.078;8.578;2022-09-12T16:15:56;4.30;;;2.40;;
12088;SDS011;6107;49.078;8.578;2022-09-12T16:18:23;5.90;;;2.10;;
12088;SDS011;6107;49.078;8.578;2022-09-12T16:20:52;6.03;;;2.50;;
12088;SDS011;6107;49.078;8.578;2022-09-12T16:23:18;6.28;;;2.45;;
12088;SDS011;6107;49.078;8.578;2022-09-12T16:25:44;4.60;;;2.33;;
12088;SDS011;6107;49.078;8.578;2022-09-12T16:28:10;9.40;;;2.50;;
12088;SDS011;6107;49.078;8.578;2022-09-12T16:30:37;7.13;;;2.17;;
12088;SDS011;6107;49.078;8.578;2022-09-12T16:33:03;4.68;;;2.13;;
12088;SDS011;6107;49.078;8.578;2022-09-12T16:35:30;3.70;;;2.25;;
12088;SDS011;6107;49.078;8.578;2022-09-12T16:37:56;9.43;;;2.75;;
12088;SDS011;6107;49.078;8.578;2022-09-12T16:40:22;8.30;;;2.83;;
12088;SDS011;6107;49.078;8.578;2022-09-12T16:42:48;12.65;;;3.25;;
12088;SDS011;6107;49.078;8.578;2022-09-12T16:45:14;8.25;;;2.50;;
12088;SDS011;6107;49.078;8.578;2022-09-12T16:47:40;5.22;;;2.00;;
12088;SDS011;6107;49.078;8.578;2022-09-12T16:50:06;6.97;;;2.65;;
12088;SDS011;6107;49.078;8.578;2022-09-12T16:52:33;7.15;;;2.65;;
12088;SDS011;6107;49.078;8.578;2022-09-12T16:54:59;7.75;;;2.38;;
12088;SDS011;6107;49.078;8.578;2022-09-12T16:57:25;5.60;;;2.17;;
12088;SDS011;6107;49.078;8.578;2022-09-12T16:59:51;5.80;;;2.63;;
12088;SDS011;6107;49.078;8.578;2022-09-12T17:02:17;2.83;;;2.42;;
12088;SDS011;6107;49.078;8.578;2022-09-12T17:04:43;4.78;;;2.25;;